createdAt,value
2023-03-22T00:01:18.583Z,5.43
2023-03-22T00:03:46.614Z,5.00
2023-03-22T00:06:13.640Z,5.78
2023-03-22T00:08:40.397Z,5.65
2023-03-22T00:11:07.499Z,5.72
2023-03-22T00:13:35.849Z,6.10
2023-03-22T00:16:05.177Z,5.38
2023-03-22T00:18:32.201Z,5.53
2023-03-22T00:20:59.777Z,5.60
2023-03-22T00:23:28.089Z,5.40
2023-03-22T00:25:54.994Z,5.50
2023-03-22T00:28:22.265Z,5.90
2023-03-22T00:30:58.486Z,6.05
2023-03-22T00:33:25.853Z,5.82
2023-03-22T00:35:55.026Z,5.85
2023-03-22T00:38:27.380Z,6.13
2023-03-22T00:41:24.148Z,6.20
2023-03-22T00:43:51.907Z,6.25
2023-03-22T00:46:20.785Z,6.18
2023-03-22T00:48:48.518Z,6.28
2023-03-22T00:51:15.835Z,6.63
2023-03-22T00:53:44.807Z,6.22
2023-03-22T00:56:12.773Z,6.88
2023-03-22T00:58:39.469Z,6.55
2023-03-22T01:01:06.359Z,6.80
2023-03-22T01:03:33.026Z,6.33
2023-03-22T01:05:59.957Z,7.07
2023-03-22T01:08:26.515Z,7.47
2023-03-22T01:10:53.292Z,7.18
2023-03-22T01:13:23.110Z,7.22
2023-03-22T01:15:52.744Z,7.03
2023-03-22T01:18:19.374Z,7.03
2023-03-22T01:20:45.870Z,7.40
2023-03-22T01:23:12.374Z,7.57
2023-03-22T01:25:39.133Z,6.95
2023-03-22T01:28:05.642Z,7.40
2023-03-22T01:30:32.626Z,7.68
2023-03-22T01:32:59.277Z,8.48
2023-03-22T01:35:25.833Z,7.53
2023-03-22T01:37:52.542Z,7.93
2023-03-22T01:40:19.200Z,8.57
2023-03-22T01:42:45.903Z,8.45
2023-03-22T01:45:15.496Z,7.63
2023-03-22T01:47:48.523Z,7.95
2023-03-22T01:50:16.652Z,9.00
2023-03-22T01:52:44.189Z,8.30
2023-03-22T01:55:11.594Z,8.18
2023-03-22T01:57:38.586Z,8.38
2023-03-22T02:00:07.676Z,8.15
2023-03-22T02:02:34.770Z,9.10
2023-03-22T02:05:01.575Z,8.27
2023-03-22T02:07:28.197Z,8.68
2023-03-22T02:09:54.980Z,8.95
2023-03-22T02:12:21.457Z,8.98
2023-03-22T02:15:18.628Z,8.65
2023-03-22T02:18:03.540Z,8.13
2023-03-22T02:20:42.228Z,8.20
2023-03-22T02:23:14.674Z,8.50
2023-03-22T02:26:19.686Z,8.00
2023-03-22T02:29:07.766Z,8.10
2023-03-22T02:32:04.241Z,8.93
2023-03-22T02:34:53.815Z,8.88
2023-03-22T02:37:57.996Z,8.52
2023-03-22T02:40:33.123Z,8.60
2023-03-22T02:43:14.985Z,8.25
2023-03-22T02:45:50.374Z,8.43
2023-03-22T02:48:35.825Z,9.05
2023-03-22T02:51:10.470Z,8.32
2023-03-22T02:53:46.284Z,8.35
2023-03-22T02:56:28.991Z,8.50
2023-03-22T02:58:59.191Z,9.23
2023-03-22T03:01:30.801Z,8.38
2023-03-22T03:04:01.287Z,9.50
2023-03-22T03:06:32.245Z,9.05
2023-03-22T03:08:59.788Z,9.02
2023-03-22T03:11:26.377Z,9.10
2023-03-22T03:13:52.965Z,8.95
2023-03-22T03:16:22.814Z,9.32
2023-03-22T03:19:28.810Z,8.63
2023-03-22T03:22:07.032Z,8.80
2023-03-22T03:24:44.932Z,9.20
2023-03-22T03:27:11.431Z,9.40
2023-03-22T03:30:02.872Z,8.70
2023-03-22T03:32:37.992Z,8.93
2023-03-22T03:35:10.932Z,8.48
2023-03-22T03:37:46.257Z,8.90
2023-03-22T03:40:17.445Z,9.52
2023-03-22T03:42:50.096Z,9.32
2023-03-22T03:45:18.724Z,9.32
2023-03-22T03:47:50.016Z,8.77
2023-03-22T03:50:16.906Z,8.70
2023-03-22T03:52:45.149Z,9.07
2023-03-22T03:55:13.313Z,9.55
2023-03-22T03:57:40.149Z,9.35
2023-03-22T04:00:08.092Z,9.63
2023-03-22T04:02:34.902Z,10.00
2023-03-22T04:05:01.661Z,10.10
2023-03-22T04:07:28.322Z,9.88
2023-03-22T04:09:54.868Z,9.50
2023-03-22T04:12:21.475Z,9.63
2023-03-22T04:14:47.976Z,9.60
2023-03-22T04:17:14.532Z,9.68
2023-03-22T04:19:41.055Z,10.15
2023-03-22T04:22:07.957Z,9.10
2023-03-22T04:24:34.844Z,9.35
2023-03-22T04:27:01.503Z,10.47
2023-03-22T04:29:28.033Z,10.60
2023-03-22T04:31:54.615Z,10.00
2023-03-22T04:34:21.355Z,9.63
2023-03-22T04:36:47.913Z,9.27
2023-03-22T04:39:14.501Z,10.00
2023-03-22T04:41:41.174Z,9.57
2023-03-22T04:44:08.003Z,9.88
2023-03-22T04:46:36.510Z,11.88
2023-03-22T04:49:04.788Z,12.20
2023-03-22T04:51:31.424Z,12.13
2023-03-22T04:53:58.876Z,11.65
2023-03-22T04:56:25.483Z,10.95
2023-03-22T04:58:52.166Z,10.73
2023-03-22T05:01:19.317Z,11.75
2023-03-22T05:03:47.443Z,12.30
2023-03-22T05:06:17.378Z,13.07
2023-03-22T05:08:44.170Z,12.15
2023-03-22T05:11:14.697Z,12.13
2023-03-22T05:13:41.435Z,10.43
2023-03-22T05:16:09.570Z,10.47
2023-03-22T05:18:36.701Z,10.85
2023-03-22T05:21:07.721Z,9.43
2023-03-22T05:23:34.476Z,10.25
2023-03-22T05:26:01.160Z,10.32
2023-03-22T05:28:27.700Z,10.73
2023-03-22T05:30:56.671Z,10.35
2023-03-22T05:33:23.856Z,10.00
2023-03-22T05:35:50.542Z,10.90
2023-03-22T05:38:17.305Z,10.68
2023-03-22T05:40:45.102Z,11.73
2023-03-22T05:43:11.922Z,12.38
2023-03-22T05:45:41.492Z,11.70
2023-03-22T05:48:08.659Z,11.18
2023-03-22T05:50:35.818Z,10.32
2023-03-22T05:53:02.413Z,10.63
2023-03-22T05:55:31.939Z,10.48
2023-03-22T05:57:59.478Z,11.20
2023-03-22T06:00:26.288Z,11.15
2023-03-22T06:02:52.900Z,10.45
2023-03-22T06:05:19.500Z,10.70
2023-03-22T06:07:46.189Z,11.52
2023-03-22T06:10:14.763Z,10.68
2023-03-22T06:12:41.621Z,10.52
2023-03-22T06:15:09.595Z,11.45
2023-03-22T06:17:36.313Z,10.53
2023-03-22T06:20:04.708Z,11.82
2023-03-22T06:22:31.302Z,11.60
2023-03-22T06:24:57.826Z,10.73
2023-03-22T11:16:07.810Z,3.42
2023-03-22T11:18:37.319Z,3.15
2023-03-22T11:21:10.180Z,2.83
2023-03-22T11:23:43.345Z,3.08
2023-03-22T11:26:17.051Z,3.15
2023-03-22T11:28:51.194Z,3.60
2023-03-22T11:31:24.393Z,3.55
2023-03-22T11:34:01.504Z,2.93
2023-03-22T11:36:32.537Z,3.30
2023-03-22T11:39:12.837Z,2.90
2023-03-22T11:41:41.503Z,2.92
2023-03-22T11:44:13.884Z,2.55
2023-03-22T11:47:01.042Z,2.40
2023-03-22T11:49:48.682Z,2.40
2023-03-22T11:52:25.487Z,2.70
2023-03-22T11:54:55.032Z,3.33
2023-03-22T11:57:27.694Z,2.28
2023-03-22T12:00:04.971Z,2.40
2023-03-22T12:02:36.131Z,2.42
2023-03-22T12:05:21.570Z,2.53
2023-03-22T12:07:54.736Z,2.50
2023-03-22T12:10:41.404Z,2.83
2023-03-22T12:13:26.859Z,3.00
2023-03-22T12:16:07.538Z,2.20
2023-03-22T12:19:13.400Z,2.70
2023-03-22T12:21:53.587Z,3.00
2023-03-22T12:24:35.149Z,2.35
2023-03-22T12:27:24.452Z,2.70
2023-03-22T12:30:13.890Z,2.55
2023-03-22T12:33:04.245Z,2.60
2023-03-22T12:35:37.749Z,2.50
2023-03-22T12:38:37.964Z,2.45
2023-03-22T12:41:12.848Z,2.73
2023-03-22T12:44:16.988Z,2.80
2023-03-22T12:46:59.204Z,2.08
2023-03-22T12:49:38.388Z,2.53
2023-03-22T12:52:34.803Z,2.95
2023-03-22T12:55:10.795Z,3.20
2023-03-22T12:57:37.396Z,2.58
2023-03-22T13:00:13.064Z,2.40
2023-03-22T13:02:58.408Z,2.25
2023-03-22T13:05:33.792Z,2.65
2023-03-22T13:08:03.759Z,2.80
2023-03-22T13:10:31.540Z,3.03
2023-03-22T13:13:24.542Z,2.53
2023-03-22T13:16:14.247Z,2.75
2023-03-22T13:18:43.719Z,2.55
2023-03-22T13:21:26.750Z,2.27
2023-03-22T13:23:59.318Z,2.20
2023-03-22T13:26:45.780Z,2.70
2023-03-22T13:29:18.501Z,2.45
2023-03-22T13:31:54.226Z,2.50
2023-03-22T13:34:30.892Z,2.37
2023-03-22T13:36:59.007Z,2.30
2023-03-22T13:39:31.684Z,2.40
2023-03-22T13:42:38.817Z,2.28
2023-03-22T13:45:28.212Z,2.20
2023-03-22T13:48:39.583Z,2.27
2023-03-22T13:51:22.810Z,2.08
2023-03-22T13:54:10.451Z,1.95
2023-03-22T13:56:56.503Z,2.28
2023-03-22T13:59:27.617Z,3.00
2023-03-22T14:02:15.945Z,2.47
2023-03-22T14:05:24.031Z,2.15
2023-03-22T14:07:54.857Z,2.33
2023-03-22T14:10:24.312Z,1.80
2023-03-22T14:12:53.972Z,2.10
2023-03-22T14:15:26.294Z,1.83
2023-03-22T14:18:17.709Z,2.20
2023-03-22T14:20:47.879Z,1.75
